createdAt,value
2022-12-03T00:03:18.840Z,1.4
2022-12-03T00:23:19.786Z,1.6
2022-12-03T00:33:20.438Z,1.6
2022-12-03T00:43:20.992Z,1.6
2022-12-03T00:53:21.935Z,1.5
2022-12-03T01:03:22.485Z,1.7
2022-12-03T01:13:23.141Z,1.6
2022-12-03T01:23:23.803Z,1.6
2022-12-03T01:33:24.163Z,1.6
2022-12-03T01:43:24.572Z,1.6
2022-12-03T01:53:24.771Z,1.5
2022-12-03T02:03:25.513Z,1.6
2022-12-03T02:13:25.833Z,1.6
2022-12-03T02:23:26.064Z,1.5
2022-12-03T02:33:26.252Z,1.5
2022-12-03T02:43:26.969Z,1.5
2022-12-03T02:53:27.123Z,1.5
2022-12-03T03:13:28.159Z,1.4
2022-12-03T03:23:28.905Z,1.4
2022-12-03T03:33:29.914Z,1.4
2022-12-03T03:43:30.165Z,1.3
2022-12-03T03:53:30.694Z,1.3
2022-12-03T04:03:31.655Z,1.3
2022-12-03T04:13:31.869Z,1.3
2022-12-03T04:23:31.949Z,1.2
2022-12-03T04:43:32.270Z,1.1
2022-12-03T04:53:34.475Z,1.1
2022-12-03T05:03:33.639Z,1.1
2022-12-03T05:33:39.552Z,1.1
2022-12-03T06:13:38.932Z,0.9
2022-12-03T06:23:39.151Z,0.9
2022-12-03T06:43:39.559Z,0.9
2022-12-03T07:03:40.205Z,0.7
2022-12-03T07:23:41.703Z,0.6
2022-12-03T07:33:42.017Z,0.7
2022-12-03T07:43:42.604Z,0.7
2022-12-03T07:53:43.366Z,0.8
2022-12-03T08:03:44.235Z,0.8
2022-12-03T08:23:45.724Z,0.8
2022-12-03T08:33:46.164Z,0.9
2022-12-03T08:43:46.704Z,0.9
2022-12-03T08:53:47.213Z,0.9
2022-12-03T09:13:48.233Z,0.8
2022-12-03T09:23:49.142Z,0.8
2022-12-03T09:44:03.695Z,1
2022-12-03T10:03:51.290Z,1
2022-12-03T10:13:52.284Z,1
2022-12-03T10:23:55.357Z,1.1
2022-12-03T10:43:54.237Z,1.3
2022-12-03T10:53:54.441Z,1.1
2022-12-03T11:03:54.658Z,1.2
2022-12-03T11:13:55.118Z,1.2
2022-12-03T11:23:55.513Z,1.3
2022-12-03T11:33:55.926Z,1.3
2022-12-03T11:43:56.031Z,1.4
2022-12-03T11:53:56.758Z,1.4
2022-12-03T12:03:57.503Z,1.3
2022-12-03T12:13:57.604Z,1.5
2022-12-03T12:23:58.370Z,1.4
2022-12-03T12:33:59.245Z,1.3
2022-12-03T12:43:59.673Z,1.3
2022-12-03T12:54:00.005Z,1.3
2022-12-03T13:04:00.759Z,1.4
2022-12-03T13:14:00.953Z,1.5
2022-12-03T13:24:01.978Z,1.4
2022-12-03T13:34:02.868Z,1.4
2022-12-03T13:44:03.160Z,1.4
2022-12-03T14:04:04.161Z,1.3
2022-12-03T14:14:05.033Z,1.3
2022-12-03T14:24:05.562Z,1.4
2022-12-03T14:34:05.609Z,1.4
2022-12-03T14:44:06.067Z,1.4
2022-12-03T14:54:07.043Z,1.4
2022-12-03T15:04:07.285Z,1.3
2022-12-03T15:14:07.470Z,1.3
2022-12-03T15:34:09.364Z,1.2
2022-12-03T15:54:11.144Z,1.2
2022-12-03T16:04:11.735Z,1.2
2022-12-03T16:14:12.170Z,1.2
2022-12-03T16:24:19.702Z,1.2
2022-12-03T16:34:12.768Z,1.2
2022-12-03T16:44:12.887Z,1.1
2022-12-03T16:54:13.498Z,1.2
2022-12-03T17:04:14.416Z,1.2
2022-12-03T17:14:14.611Z,1
2022-12-03T17:24:15.187Z,1.1
2022-12-03T17:34:15.546Z,1
2022-12-03T17:44:20.909Z,0.9
2022-12-03T17:54:16.637Z,0.9
2022-12-03T18:04:16.912Z,0.9
2022-12-03T18:14:17.341Z,0.8
2022-12-03T18:34:18.508Z,0.8
2022-12-03T18:44:19.074Z,0.8
2022-12-03T18:54:19.498Z,0.7
2022-12-03T19:04:20.465Z,0.8
2022-12-03T19:14:20.905Z,0.7
2022-12-03T19:24:24.634Z,0.8
2022-12-03T19:44:22.337Z,0.6
2022-12-03T19:54:22.872Z,0.7
2022-12-03T20:04:23.224Z,0.6
2022-12-03T20:14:24.151Z,0.6
2022-12-03T20:24:25.036Z,0.6
2022-12-03T20:34:25.204Z,0.5
2022-12-03T20:54:26.287Z,0.5
2022-12-03T21:14:27.239Z,0.6
2022-12-03T21:24:27.686Z,0.6
2022-12-03T21:34:36.254Z,0.6
2022-12-03T21:44:34.344Z,0.7
2022-12-03T21:54:35.293Z,0.6
2022-12-03T22:04:36.147Z,0.7
2022-12-03T22:14:36.476Z,0.6
2022-12-03T22:34:37.782Z,0.5
2022-12-03T22:44:38.169Z,0.5
2022-12-03T22:54:38.350Z,0.5
2022-12-03T23:14:38.808Z,0.6
2022-12-03T23:34:40.337Z,0.5
2022-12-03T23:44:40.652Z,0.6
2022-12-03T23:54:41.136Z,0.6
